sensor_id;sensor_type;location;lat;lon;timestamp;P1;durP1;ratioP1;P2;durP2;ratioP2
60243;SDS011;46106;51.468;5.814;2023-05-14T00:00:38;34.95;;;20.02;;
60243;SDS011;46106;51.468;5.814;2023-05-14T00:03:03;39.30;;;19.63;;
60243;SDS011;46106;51.468;5.814;2023-05-14T00:05:29;33.30;;;19.38;;
60243;SDS011;46106;51.468;5.814;2023-05-14T00:07:54;42.80;;;20.27;;
60243;SDS011;46106;51.468;5.814;2023-05-14T00:10:19;35.03;;;20.70;;
60243;SDS011;46106;51.468;5.814;2023-05-14T00:12:45;35.65;;;20.55;;
60243;SDS011;46106;51.468;5.814;2023-05-14T00:15:11;50.78;;;20.77;;
60243;SDS011;46106;51.468;5.814;2023-05-14T00:17:37;48.28;;;22.25;;
60243;SDS011;46106;51.468;5.814;2023-05-14T00:20:03;38.17;;;19.77;;
60243;SDS011;46106;51.468;5.814;2023-05-14T00:22:31;34.83;;;20.33;;
60243;SDS011;46106;51.468;5.814;2023-05-14T00:24:57;39.75;;;20.85;;
60243;SDS011;46106;51.468;5.814;2023-05-14T00:27:23;36.30;;;20.15;;
60243;SDS011;46106;51.468;5.814;2023-05-14T00:29:48;36.55;;;20.35;;
60243;SDS011;46106;51.468;5.814;2023-05-14T00:32:16;57.40;;;22.13;;
60243;SDS011;46106;51.468;5.814;2023-05-14T00:34:42;33.65;;;20.75;;
60243;SDS011;46106;51.468;5.814;2023-05-14T00:37:07;43.53;;;21.00;;
60243;SDS011;46106;51.468;5.814;2023-05-14T00:39:33;42.33;;;21.17;;
60243;SDS011;46106;51.468;5.814;2023-05-14T00:41:58;38.70;;;20.95;;
60243;SDS011;46106;51.468;5.814;2023-05-14T00:44:24;41.75;;;21.67;;
60243;SDS011;46106;51.468;5.814;2023-05-14T00:46:49;42.97;;;21.83;;
60243;SDS011;46106;51.468;5.814;2023-05-14T00:49:15;37.60;;;21.67;;
60243;SDS011;46106;51.468;5.814;2023-05-14T00:51:41;49.70;;;22.10;;
60243;SDS011;46106;51.468;5.814;2023-05-14T00:54:11;47.25;;;22.33;;
60243;SDS011;46106;51.468;5.814;2023-05-14T00:56:41;44.35;;;23.92;;
60243;SDS011;46106;51.468;5.814;2023-05-14T00:59:09;38.78;;;22.40;;
60243;SDS011;46106;51.468;5.814;2023-05-14T01:01:35;39.55;;;22.95;;
60243;SDS011;46106;51.468;5.814;2023-05-14T01:04:01;40.20;;;23.20;;
60243;SDS011;46106;51.468;5.814;2023-05-14T01:06:40;37.03;;;22.83;;
60243;SDS011;46106;51.468;5.814;2023-05-14T01:14:56;41.58;;;23.95;;
60243;SDS011;46106;51.468;5.814;2023-05-14T01:17:31;47.60;;;24.20;;
60243;SDS011;46106;51.468;5.814;2023-05-14T01:20:02;54.97;;;25.20;;
60243;SDS011;46106;51.468;5.814;2023-05-14T01:22:28;43.13;;;23.83;;
60243;SDS011;46106;51.468;5.814;2023-05-14T01:24:53;47.67;;;24.00;;
60243;SDS011;46106;51.468;5.814;2023-05-14T01:32:52;47.10;;;25.42;;
60243;SDS011;46106;51.468;5.814;2023-05-14T01:35:24;46.65;;;23.92;;
60243;SDS011;46106;51.468;5.814;2023-05-14T01:37:52;48.08;;;25.23;;
60243;SDS011;46106;51.468;5.814;2023-05-14T01:40:20;43.67;;;24.98;;
60243;SDS011;46106;51.468;5.814;2023-05-14T01:42:47;49.83;;;24.52;;
60243;SDS011;46106;51.468;5.814;2023-05-14T01:45:15;61.67;;;27.35;;
60243;SDS011;46106;51.468;5.814;2023-05-14T01:47:40;50.65;;;25.20;;
60243;SDS011;46106;51.468;5.814;2023-05-14T01:50:06;59.10;;;27.48;;
60243;SDS011;46106;51.468;5.814;2023-05-14T01:52:31;50.97;;;26.33;;
60243;SDS011;46106;51.468;5.814;2023-05-14T01:54:57;45.50;;;24.27;;
60243;SDS011;46106;51.468;5.814;2023-05-14T01:57:24;45.00;;;24.33;;
60243;SDS011;46106;51.468;5.814;2023-05-14T01:59:49;44.65;;;25.15;;
60243;SDS011;46106;51.468;5.814;2023-05-14T02:02:15;46.85;;;26.27;;
60243;SDS011;46106;51.468;5.814;2023-05-14T02:04:40;45.45;;;24.80;;
60243;SDS011;46106;51.468;5.814;2023-05-14T02:07:06;56.30;;;25.67;;
60243;SDS011;46106;51.468;5.814;2023-05-14T02:09:31;54.85;;;25.95;;
60243;SDS011;46106;51.468;5.814;2023-05-14T02:11:57;50.75;;;25.67;;
60243;SDS011;46106;51.468;5.814;2023-05-14T02:14:22;54.42;;;26.75;;
60243;SDS011;46106;51.468;5.814;2023-05-14T02:16:48;49.50;;;25.92;;
60243;SDS011;46106;51.468;5.814;2023-05-14T02:19:15;45.60;;;25.23;;
60243;SDS011;46106;51.468;5.814;2023-05-14T02:21:40;51.95;;;27.95;;
60243;SDS011;46106;51.468;5.814;2023-05-14T02:24:05;47.42;;;26.20;;
60243;SDS011;46106;51.468;5.814;2023-05-14T02:26:31;46.67;;;26.17;;
60243;SDS011;46106;51.468;5.814;2023-05-14T02:28:56;45.47;;;25.83;;
60243;SDS011;46106;51.468;5.814;2023-05-14T02:31:22;62.42;;;28.55;;
60243;SDS011;46106;51.468;5.814;2023-05-14T02:33:47;49.80;;;27.33;;
60243;SDS011;46106;51.468;5.814;2023-05-14T02:36:13;46.05;;;27.48;;
60243;SDS011;46106;51.468;5.814;2023-05-14T02:38:38;58.65;;;27.20;;
60243;SDS011;46106;51.468;5.814;2023-05-14T02:41:04;50.13;;;28.58;;
60243;SDS011;46106;51.468;5.814;2023-05-14T02:43:29;53.15;;;28.33;;
60243;SDS011;46106;51.468;5.814;2023-05-14T02:45:55;54.75;;;27.73;;
60243;SDS011;46106;51.468;5.814;2023-05-14T02:48:20;57.33;;;29.92;;
60243;SDS011;46106;51.468;5.814;2023-05-14T02:50:45;54.25;;;28.00;;
60243;SDS011;46106;51.468;5.814;2023-05-14T02:53:12;57.10;;;28.48;;
60243;SDS011;46106;51.468;5.814;2023-05-14T02:55:38;53.85;;;27.65;;
60243;SDS011;46106;51.468;5.814;2023-05-14T02:58:03;70.57;;;30.05;;
60243;SDS011;46106;51.468;5.814;2023-05-14T03:00:28;53.58;;;28.10;;
60243;SDS011;46106;51.468;5.814;2023-05-14T03:02:54;55.08;;;28.55;;
60243;SDS011;46106;51.468;5.814;2023-05-14T03:05:19;58.75;;;29.25;;
60243;SDS011;46106;51.468;5.814;2023-05-14T03:07:45;71.45;;;30.88;;
60243;SDS011;46106;51.468;5.814;2023-05-14T03:10:10;57.97;;;29.48;;
60243;SDS011;46106;51.468;5.814;2023-05-14T03:12:36;54.28;;;29.98;;
60243;SDS011;46106;51.468;5.814;2023-05-14T03:15:01;54.20;;;30.92;;
60243;SDS011;46106;51.468;5.814;2023-05-14T03:17:27;58.10;;;31.30;;
60243;SDS011;46106;51.468;5.814;2023-05-14T03:19:52;65.75;;;31.83;;
60243;SDS011;46106;51.468;5.814;2023-05-14T03:22:18;56.58;;;29.52;;
60243;SDS011;46106;51.468;5.814;2023-05-14T03:24:43;65.32;;;31.20;;
60243;SDS011;46106;51.468;5.814;2023-05-14T03:27:08;70.22;;;33.35;;
60243;SDS011;46106;51.468;5.814;2023-05-14T03:29:34;67.22;;;32.80;;
60243;SDS011;46106;51.468;5.814;2023-05-14T03:32:03;71.15;;;34.45;;
60243;SDS011;46106;51.468;5.814;2023-05-14T03:34:28;62.75;;;30.98;;
60243;SDS011;46106;51.468;5.814;2023-05-14T03:36:54;66.30;;;33.40;;
60243;SDS011;46106;51.468;5.814;2023-05-14T03:39:19;70.20;;;33.67;;
60243;SDS011;46106;51.468;5.814;2023-05-14T03:41:45;74.97;;;34.20;;
60243;SDS011;46106;51.468;5.814;2023-05-14T03:44:12;68.55;;;33.72;;
60243;SDS011;46106;51.468;5.814;2023-05-14T03:46:37;72.22;;;33.80;;
60243;SDS011;46106;51.468;5.814;2023-05-14T03:49:03;68.65;;;33.25;;
60243;SDS011;46106;51.468;5.814;2023-05-14T03:51:28;70.05;;;35.83;;
60243;SDS011;46106;51.468;5.814;2023-05-14T03:53:54;75.07;;;34.58;;
60243;SDS011;46106;51.468;5.814;2023-05-14T03:56:19;62.17;;;34.88;;
60243;SDS011;46106;51.468;5.814;2023-05-14T03:58:45;70.53;;;34.08;;
60243;SDS011;46106;51.468;5.814;2023-05-14T04:01:10;68.32;;;35.30;;
60243;SDS011;46106;51.468;5.814;2023-05-14T04:03:36;62.35;;;33.47;;
60243;SDS011;46106;51.468;5.814;2023-05-14T04:06:01;69.57;;;35.35;;
60243;SDS011;46106;51.468;5.814;2023-05-14T04:08:26;78.55;;;33.38;;
60243;SDS011;46106;51.468;5.814;2023-05-14T04:10:52;73.53;;;35.53;;
60243;SDS011;46106;51.468;5.814;2023-05-14T04:13:17;75.82;;;36.60;;
60243;SDS011;46106;51.468;5.814;2023-05-14T04:15:43;68.45;;;34.55;;
60243;SDS011;46106;51.468;5.814;2023-05-14T04:18:08;73.72;;;36.95;;
60243;SDS011;46106;51.468;5.814;2023-05-14T04:20:34;73.85;;;35.47;;
60243;SDS011;46106;51.468;5.814;2023-05-14T04:22:59;73.03;;;36.55;;
60243;SDS011;46106;51.468;5.814;2023-05-14T04:25:27;73.22;;;36.35;;
60243;SDS011;46106;51.468;5.814;2023-05-14T04:27:53;71.05;;;34.80;;
60243;SDS011;46106;51.468;5.814;2023-05-14T04:30:19;85.50;;;37.05;;
60243;SDS011;46106;51.468;5.814;2023-05-14T04:32:45;76.97;;;36.97;;
60243;SDS011;46106;51.468;5.814;2023-05-14T04:35:10;73.68;;;37.70;;
60243;SDS011;46106;51.468;5.814;2023-05-14T04:37:37;72.55;;;37.17;;
60243;SDS011;46106;51.468;5.814;2023-05-14T04:40:03;82.15;;;36.10;;
60243;SDS011;46106;51.468;5.814;2023-05-14T04:42:29;70.20;;;35.78;;
60243;SDS011;46106;51.468;5.814;2023-05-14T04:44:55;70.05;;;35.85;;
60243;SDS011;46106;51.468;5.814;2023-05-14T04:47:20;75.03;;;37.97;;
60243;SDS011;46106;51.468;5.814;2023-05-14T04:49:46;74.22;;;35.97;;
60243;SDS011;46106;51.468;5.814;2023-05-14T04:52:12;77.47;;;38.85;;
60243;SDS011;46106;51.468;5.814;2023-05-14T04:54:37;69.45;;;36.35;;
60243;SDS011;46106;51.468;5.814;2023-05-14T04:57:03;75.68;;;36.13;;
60243;SDS011;46106;51.468;5.814;2023-05-14T04:59:29;87.85;;;38.55;;
60243;SDS011;46106;51.468;5.814;2023-05-14T05:01:55;75.60;;;36.95;;
60243;SDS011;46106;51.468;5.814;2023-05-14T05:04:21;76.85;;;38.47;;
60243;SDS011;46106;51.468;5.814;2023-05-14T05:06:48;76.85;;;34.55;;
60243;SDS011;46106;51.468;5.814;2023-05-14T05:09:14;72.45;;;36.88;;
60243;SDS011;46106;51.468;5.814;2023-05-14T05:11:41;75.57;;;35.58;;
60243;SDS011;46106;51.468;5.814;2023-05-14T05:14:06;69.63;;;35.47;;
60243;SDS011;46106;51.468;5.814;2023-05-14T05:16:32;68.85;;;36.72;;
60243;SDS011;46106;51.468;5.814;2023-05-14T05:18:57;70.30;;;36.08;;
60243;SDS011;46106;51.468;5.814;2023-05-14T05:21:23;75.70;;;36.20;;
60243;SDS011;46106;51.468;5.814;2023-05-14T05:23:48;70.45;;;37.47;;
60243;SDS011;46106;51.468;5.814;2023-05-14T05:26:17;68.57;;;34.17;;
60243;SDS011;46106;51.468;5.814;2023-05-14T05:28:42;72.75;;;33.85;;
60243;SDS011;46106;51.468;5.814;2023-05-14T05:31:07;73.88;;;35.10;;
60243;SDS011;46106;51.468;5.814;2023-05-14T05:33:33;65.65;;;36.08;;
60243;SDS011;46106;51.468;5.814;2023-05-14T05:35:59;67.30;;;33.95;;
60243;SDS011;46106;51.468;5.814;2023-05-14T05:41:00;74.85;;;34.22;;
60243;SDS011;46106;51.468;5.814;2023-05-14T05:43:25;73.32;;;36.33;;
60243;SDS011;46106;51.468;5.814;2023-05-14T05:45:52;72.10;;;38.35;;
60243;SDS011;46106;51.468;5.814;2023-05-14T05:48:18;70.95;;;37.97;;
60243;SDS011;46106;51.468;5.814;2023-05-14T05:50:45;78.15;;;39.08;;
60243;SDS011;46106;51.468;5.814;2023-05-14T05:53:12;74.93;;;37.83;;
60243;SDS011;46106;51.468;5.814;2023-05-14T05:55:40;70.03;;;36.17;;
60243;SDS011;46106;51.468;5.814;2023-05-14T05:58:06;71.65;;;36.03;;
60243;SDS011;46106;51.468;5.814;2023-05-14T06:00:31;68.82;;;37.05;;
60243;SDS011;46106;51.468;5.814;2023-05-14T06:02:57;62.70;;;36.28;;
60243;SDS011;46106;51.468;5.814;2023-05-14T06:05:22;71.57;;;37.10;;
60243;SDS011;46106;51.468;5.814;2023-05-14T06:07:48;79.70;;;38.70;;
60243;SDS011;46106;51.468;5.814;2023-05-14T06:10:13;65.45;;;34.75;;
60243;SDS011;46106;51.468;5.814;2023-05-14T06:12:39;64.30;;;33.90;;
60243;SDS011;46106;51.468;5.814;2023-05-14T06:15:05;65.53;;;33.22;;
60243;SDS011;46106;51.468;5.814;2023-05-14T06:17:31;58.17;;;33.50;;
60243;SDS011;46106;51.468;5.814;2023-05-14T06:19:56;55.78;;;31.08;;
60243;SDS011;46106;51.468;5.814;2023-05-14T06:22:22;66.90;;;31.67;;
60243;SDS011;46106;51.468;5.814;2023-05-14T06:24:47;59.45;;;29.95;;
60243;SDS011;46106;51.468;5.814;2023-05-14T06:27:13;58.78;;;31.10;;
60243;SDS011;46106;51.468;5.814;2023-05-14T06:29:38;54.72;;;29.38;;
60243;SDS011;46106;51.468;5.814;2023-05-14T06:32:04;53.15;;;30.50;;
60243;SDS011;46106;51.468;5.814;2023-05-14T06:34:30;59.92;;;30.92;;
60243;SDS011;46106;51.468;5.814;2023-05-14T06:36:56;58.45;;;29.38;;
60243;SDS011;46106;51.468;5.814;2023-05-14T06:39:22;52.33;;;29.85;;
60243;SDS011;46106;51.468;5.814;2023-05-14T06:41:48;56.83;;;30.30;;
60243;SDS011;46106;51.468;5.814;2023-05-14T06:44:14;50.10;;;29.38;;
60243;SDS011;46106;51.468;5.814;2023-05-14T06:46:40;52.20;;;28.67;;
60243;SDS011;46106;51.468;5.814;2023-05-14T06:49:06;51.97;;;29.30;;
60243;SDS011;46106;51.468;5.814;2023-05-14T06:51:31;50.95;;;27.50;;
60243;SDS011;46106;51.468;5.814;2023-05-14T06:53:57;53.78;;;27.75;;
60243;SDS011;46106;51.468;5.814;2023-05-14T06:56:22;49.53;;;29.30;;
60243;SDS011;46106;51.468;5.814;2023-05-14T06:58:48;51.40;;;27.50;;
60243;SDS011;46106;51.468;5.814;2023-05-14T07:01:13;64.60;;;31.52;;
60243;SDS011;46106;51.468;5.814;2023-05-14T07:03:38;57.55;;;31.77;;
60243;SDS011;46106;51.468;5.814;2023-05-14T07:06:04;56.15;;;29.23;;
60243;SDS011;46106;51.468;5.814;2023-05-14T07:08:30;55.47;;;29.80;;
60243;SDS011;46106;51.468;5.814;2023-05-14T07:10:56;58.90;;;31.85;;
60243;SDS011;46106;51.468;5.814;2023-05-14T07:13:22;59.72;;;31.98;;
60243;SDS011;46106;51.468;5.814;2023-05-14T07:15:48;51.35;;;31.30;;
60243;SDS011;46106;51.468;5.814;2023-05-14T07:18:13;59.78;;;31.70;;
60243;SDS011;46106;51.468;5.814;2023-05-14T07:20:39;52.67;;;30.65;;
60243;SDS011;46106;51.468;5.814;2023-05-14T07:23:04;59.40;;;34.80;;
60243;SDS011;46106;51.468;5.814;2023-05-14T07:25:31;57.33;;;32.17;;
60243;SDS011;46106;51.468;5.814;2023-05-14T07:27:56;52.88;;;32.20;;
60243;SDS011;46106;51.468;5.814;2023-05-14T07:30:22;56.97;;;33.35;;
60243;SDS011;46106;51.468;5.814;2023-05-14T07:32:48;54.25;;;32.25;;
60243;SDS011;46106;51.468;5.814;2023-05-14T07:35:13;56.10;;;32.22;;
60243;SDS011;46106;51.468;5.814;2023-05-14T07:37:39;56.22;;;33.80;;
60243;SDS011;46106;51.468;5.814;2023-05-14T07:40:05;61.90;;;33.55;;
60243;SDS011;46106;51.468;5.814;2023-05-14T07:42:31;59.25;;;33.10;;
60243;SDS011;46106;51.468;5.814;2023-05-14T07:44:56;58.25;;;32.90;;
60243;SDS011;46106;51.468;5.814;2023-05-14T07:47:22;57.85;;;32.50;;
60243;SDS011;46106;51.468;5.814;2023-05-14T07:49:47;54.53;;;32.08;;
60243;SDS011;46106;51.468;5.814;2023-05-14T07:52:13;59.80;;;32.72;;
60243;SDS011;46106;51.468;5.814;2023-05-14T07:54:38;55.92;;;32.22;;
60243;SDS011;46106;51.468;5.814;2023-05-14T07:57:04;64.07;;;33.03;;
60243;SDS011;46106;51.468;5.814;2023-05-14T07:59:29;61.92;;;32.33;;
60243;SDS011;46106;51.468;5.814;2023-05-14T08:01:55;57.10;;;31.85;;
60243;SDS011;46106;51.468;5.814;2023-05-14T08:04:20;58.67;;;33.45;;
60243;SDS011;46106;51.468;5.814;2023-05-14T08:06:47;47.22;;;31.88;;
60243;SDS011;46106;51.468;5.814;2023-05-14T08:09:13;58.72;;;33.97;;
60243;SDS011;46106;51.468;5.814;2023-05-14T08:11:39;56.70;;;32.17;;
60243;SDS011;46106;51.468;5.814;2023-05-14T08:14:04;61.45;;;30.92;;
60243;SDS011;46106;51.468;5.814;2023-05-14T08:16:30;53.50;;;29.90;;
60243;SDS011;46106;51.468;5.814;2023-05-14T08:18:56;53.95;;;31.60;;
60243;SDS011;46106;51.468;5.814;2023-05-14T08:21:21;54.65;;;30.45;;
60243;SDS011;46106;51.468;5.814;2023-05-14T08:23:46;55.85;;;31.42;;
60243;SDS011;46106;51.468;5.814;2023-05-14T08:26:12;45.92;;;29.02;;
60243;SDS011;46106;51.468;5.814;2023-05-14T08:28:37;56.58;;;30.20;;
60243;SDS011;46106;51.468;5.814;2023-05-14T08:31:03;54.35;;;29.65;;
60243;SDS011;46106;51.468;5.814;2023-05-14T08:33:28;51.72;;;29.20;;
60243;SDS011;46106;51.468;5.814;2023-05-14T08:35:54;54.38;;;30.02;;
60243;SDS011;46106;51.468;5.814;2023-05-14T08:38:20;56.67;;;29.42;;
60243;SDS011;46106;51.468;5.814;2023-05-14T08:40:46;60.75;;;28.65;;
60243;SDS011;46106;51.468;5.814;2023-05-14T08:43:14;55.38;;;26.23;;
60243;SDS011;46106;51.468;5.814;2023-05-14T08:45:44;60.13;;;28.25;;
60243;SDS011;46106;51.468;5.814;2023-05-14T08:48:10;51.30;;;27.25;;
60243;SDS011;46106;51.468;5.814;2023-05-14T08:50:39;48.53;;;26.73;;
60243;SDS011;46106;51.468;5.814;2023-05-14T08:53:05;60.40;;;28.05;;
60243;SDS011;46106;51.468;5.814;2023-05-14T08:55:31;53.20;;;28.35;;
60243;SDS011;46106;51.468;5.814;2023-05-14T08:57:58;55.10;;;25.95;;
60243;SDS011;46106;51.468;5.814;2023-05-14T09:00:23;49.08;;;26.65;;
60243;SDS011;46106;51.468;5.814;2023-05-14T09:02:50;48.47;;;28.10;;
60243;SDS011;46106;51.468;5.814;2023-05-14T09:05:16;50.47;;;28.55;;
60243;SDS011;46106;51.468;5.814;2023-05-14T09:07:43;49.15;;;28.25;;
60243;SDS011;46106;51.468;5.814;2023-05-14T09:10:09;51.50;;;27.55;;
60243;SDS011;46106;51.468;5.814;2023-05-14T09:12:39;53.33;;;28.80;;
60243;SDS011;46106;51.468;5.814;2023-05-14T09:15:05;52.08;;;26.10;;
60243;SDS011;46106;51.468;5.814;2023-05-14T09:17:31;56.50;;;27.65;;
60243;SDS011;46106;51.468;5.814;2023-05-14T09:19:57;51.72;;;28.60;;
60243;SDS011;46106;51.468;5.814;2023-05-14T09:22:23;49.88;;;27.27;;
60243;SDS011;46106;51.468;5.814;2023-05-14T09:25:01;52.33;;;26.80;;
60243;SDS011;46106;51.468;5.814;2023-05-14T09:27:29;58.05;;;25.75;;
60243;SDS011;46106;51.468;5.814;2023-05-14T09:30:00;40.88;;;26.13;;
60243;SDS011;46106;51.468;5.814;2023-05-14T09:32:34;43.53;;;25.05;;
60243;SDS011;46106;51.468;5.814;2023-05-14T09:35:07;40.15;;;24.45;;
60243;SDS011;46106;51.468;5.814;2023-05-14T09:37:46;52.60;;;25.90;;
60243;SDS011;46106;51.468;5.814;2023-05-14T09:40:13;52.10;;;26.42;;
60243;SDS011;46106;51.468;5.814;2023-05-14T09:42:39;50.05;;;26.15;;
60243;SDS011;46106;51.468;5.814;2023-05-14T09:45:06;48.72;;;25.42;;
60243;SDS011;46106;51.468;5.814;2023-05-14T09:47:32;47.25;;;26.05;;
60243;SDS011;46106;51.468;5.814;2023-05-14T09:49:58;58.45;;;25.88;;
60243;SDS011;46106;51.468;5.814;2023-05-14T09:52:23;48.78;;;25.77;;
60243;SDS011;46106;51.468;5.814;2023-05-14T09:54:51;44.65;;;23.85;;
60243;SDS011;46106;51.468;5.814;2023-05-14T09:57:17;44.65;;;23.08;;
60243;SDS011;46106;51.468;5.814;2023-05-14T09:59:43;50.13;;;26.00;;
60243;SDS011;46106;51.468;5.814;2023-05-14T10:02:22;55.33;;;28.23;;
60243;SDS011;46106;51.468;5.814;2023-05-14T10:04:52;56.70;;;26.83;;
60243;SDS011;46106;51.468;5.814;2023-05-14T10:07:22;48.90;;;25.83;;
60243;SDS011;46106;51.468;5.814;2023-05-14T10:09:53;44.47;;;24.27;;
60243;SDS011;46106;51.468;5.814;2023-05-14T10:12:23;56.53;;;26.40;;
60243;SDS011;46106;51.468;5.814;2023-05-14T10:14:52;45.75;;;26.42;;
60243;SDS011;46106;51.468;5.814;2023-05-14T10:17:25;48.30;;;26.17;;
60243;SDS011;46106;51.468;5.814;2023-05-14T10:19:56;51.70;;;25.02;;
60243;SDS011;46106;51.468;5.814;2023-05-14T10:22:26;45.17;;;23.77;;
60243;SDS011;46106;51.468;5.814;2023-05-14T10:24:59;43.70;;;24.00;;
60243;SDS011;46106;51.468;5.814;2023-05-14T10:27:25;46.85;;;22.88;;
60243;SDS011;46106;51.468;5.814;2023-05-14T10:29:52;44.38;;;24.95;;
60243;SDS011;46106;51.468;5.814;2023-05-14T10:32:19;48.13;;;24.98;;
60243;SDS011;46106;51.468;5.814;2023-05-14T10:34:49;42.67;;;24.20;;
60243;SDS011;46106;51.468;5.814;2023-05-14T10:37:17;51.60;;;25.05;;
60243;SDS011;46106;51.468;5.814;2023-05-14T10:39:51;47.72;;;24.33;;
60243;SDS011;46106;51.468;5.814;2023-05-14T10:42:19;43.05;;;24.85;;
60243;SDS011;46106;51.468;5.814;2023-05-14T10:44:53;46.22;;;22.67;;
60243;SDS011;46106;51.468;5.814;2023-05-14T10:47:22;35.63;;;22.27;;
60243;SDS011;46106;51.468;5.814;2023-05-14T10:49:51;40.20;;;23.20;;
60243;SDS011;46106;51.468;5.814;2023-05-14T10:52:19;46.35;;;21.80;;
60243;SDS011;46106;51.468;5.814;2023-05-14T10:54:55;42.33;;;22.40;;
60243;SDS011;46106;51.468;5.814;2023-05-14T10:57:25;33.70;;;19.48;;
60243;SDS011;46106;51.468;5.814;2023-05-14T10:59:53;36.25;;;19.38;;
60243;SDS011;46106;51.468;5.814;2023-05-14T11:02:24;31.85;;;18.13;;
60243;SDS011;46106;51.468;5.814;2023-05-14T11:05:01;39.20;;;17.42;;
60243;SDS011;46106;51.468;5.814;2023-05-14T11:07:33;33.65;;;17.75;;
60243;SDS011;46106;51.468;5.814;2023-05-14T11:10:07;35.88;;;19.20;;
60243;SDS011;46106;51.468;5.814;2023-05-14T11:12:35;33.90;;;17.55;;
60243;SDS011;46106;51.468;5.814;2023-05-14T11:15:03;35.92;;;17.77;;
60243;SDS011;46106;51.468;5.814;2023-05-14T11:17:31;35.92;;;18.17;;
60243;SDS011;46106;51.468;5.814;2023-05-14T11:19:57;37.60;;;18.23;;
60243;SDS011;46106;51.468;5.814;2023-05-14T11:22:23;33.40;;;18.02;;
60243;SDS011;46106;51.468;5.814;2023-05-14T11:24:49;31.88;;;18.60;;
60243;SDS011;46106;51.468;5.814;2023-05-14T11:27:18;36.30;;;17.77;;
60243;SDS011;46106;51.468;5.814;2023-05-14T11:29:46;38.85;;;18.45;;
60243;SDS011;46106;51.468;5.814;2023-05-14T11:32:12;30.23;;;17.60;;
60243;SDS011;46106;51.468;5.814;2023-05-14T11:34:39;40.05;;;19.02;;
60243;SDS011;46106;51.468;5.814;2023-05-14T11:37:05;34.30;;;19.17;;
60243;SDS011;46106;51.468;5.814;2023-05-14T11:39:32;33.08;;;17.02;;
60243;SDS011;46106;51.468;5.814;2023-05-14T11:41:58;34.53;;;17.85;;
60243;SDS011;46106;51.468;5.814;2023-05-14T11:44:26;29.27;;;17.35;;
60243;SDS011;46106;51.468;5.814;2023-05-14T11:46:53;31.58;;;17.10;;
60243;SDS011;46106;51.468;5.814;2023-05-14T11:49:20;28.80;;;14.00;;
60243;SDS011;46106;51.468;5.814;2023-05-14T11:51:47;25.48;;;12.57;;
60243;SDS011;46106;51.468;5.814;2023-05-14T11:54:13;28.17;;;12.18;;
60243;SDS011;46106;51.468;5.814;2023-05-14T11:56:38;31.05;;;14.55;;
60243;SDS011;46106;51.468;5.814;2023-05-14T11:59:04;18.17;;;11.52;;
60243;SDS011;46106;51.468;5.814;2023-05-14T12:01:34;19.27;;;10.77;;
60243;SDS011;46106;51.468;5.814;2023-05-14T12:04:02;25.48;;;11.27;;
60243;SDS011;46106;51.468;5.814;2023-05-14T12:06:31;22.65;;;12.30;;
60243;SDS011;46106;51.468;5.814;2023-05-14T12:08:57;27.77;;;15.70;;
60243;SDS011;46106;51.468;5.814;2023-05-14T12:11:22;26.83;;;11.68;;
60243;SDS011;46106;51.468;5.814;2023-05-14T12:13:48;20.42;;;11.95;;
60243;SDS011;46106;51.468;5.814;2023-05-14T12:16:13;19.88;;;10.68;;
60243;SDS011;46106;51.468;5.814;2023-05-14T12:18:39;16.70;;;9.52;;
60243;SDS011;46106;51.468;5.814;2023-05-14T12:21:05;19.75;;;10.30;;
60243;SDS011;46106;51.468;5.814;2023-05-14T12:23:33;15.88;;;9.02;;
60243;SDS011;46106;51.468;5.814;2023-05-14T12:26:03;19.83;;;7.40;;
60243;SDS011;46106;51.468;5.814;2023-05-14T12:28:30;18.38;;;9.07;;
60243;SDS011;46106;51.468;5.814;2023-05-14T12:30:57;15.40;;;10.43;;
60243;SDS011;46106;51.468;5.814;2023-05-14T12:33:23;21.60;;;11.70;;
60243;SDS011;46106;51.468;5.814;2023-05-14T12:35:51;22.92;;;11.20;;
60243;SDS011;46106;51.468;5.814;2023-05-14T12:38:26;18.20;;;9.88;;
60243;SDS011;46106;51.468;5.814;2023-05-14T12:40:52;22.15;;;9.73;;
60243;SDS011;46106;51.468;5.814;2023-05-14T12:43:18;20.33;;;9.15;;
60243;SDS011;46106;51.468;5.814;2023-05-14T12:45:44;16.40;;;8.13;;
60243;SDS011;46106;51.468;5.814;2023-05-14T12:48:09;16.25;;;5.80;;
60243;SDS011;46106;51.468;5.814;2023-05-14T12:50:37;15.20;;;5.57;;
60243;SDS011;46106;51.468;5.814;2023-05-14T12:53:02;9.60;;;6.22;;
60243;SDS011;46106;51.468;5.814;2023-05-14T12:55:28;17.77;;;6.10;;
60243;SDS011;46106;51.468;5.814;2023-05-14T12:57:54;12.90;;;5.55;;
60243;SDS011;46106;51.468;5.814;2023-05-14T13:00:19;12.32;;;5.60;;
60243;SDS011;46106;51.468;5.814;2023-05-14T13:02:45;9.32;;;4.85;;
60243;SDS011;46106;51.468;5.814;2023-05-14T13:05:11;11.43;;;5.80;;
60243;SDS011;46106;51.468;5.814;2023-05-14T13:07:36;19.25;;;5.50;;
60243;SDS011;46106;51.468;5.814;2023-05-14T13:10:02;11.93;;;5.05;;
60243;SDS011;46106;51.468;5.814;2023-05-14T13:12:29;17.30;;;6.55;;
60243;SDS011;46106;51.468;5.814;2023-05-14T13:14:55;14.98;;;7.10;;
60243;SDS011;46106;51.468;5.814;2023-05-14T13:17:20;9.43;;;6.28;;
60243;SDS011;46106;51.468;5.814;2023-05-14T13:19:46;9.40;;;6.57;;
60243;SDS011;46106;51.468;5.814;2023-05-14T13:22:11;12.68;;;6.55;;
60243;SDS011;46106;51.468;5.814;2023-05-14T13:24:38;10.05;;;6.53;;
60243;SDS011;46106;51.468;5.814;2023-05-14T13:27:04;9.43;;;6.80;;
60243;SDS011;46106;51.468;5.814;2023-05-14T13:29:29;11.00;;;6.18;;
60243;SDS011;46106;51.468;5.814;2023-05-14T13:31:55;16.58;;;7.07;;
60243;SDS011;46106;51.468;5.814;2023-05-14T13:34:21;14.20;;;6.68;;
60243;SDS011;46106;51.468;5.814;2023-05-14T13:36:46;16.23;;;7.95;;
60243;SDS011;46106;51.468;5.814;2023-05-14T13:39:13;12.55;;;6.20;;
60243;SDS011;46106;51.468;5.814;2023-05-14T13:41:39;9.93;;;6.00;;
60243;SDS011;46106;51.468;5.814;2023-05-14T13:44:05;14.57;;;5.75;;
60243;SDS011;46106;51.468;5.814;2023-05-14T13:46:31;13.18;;;6.40;;
60243;SDS011;46106;51.468;5.814;2023-05-14T13:48:56;17.00;;;6.95;;
60243;SDS011;46106;51.468;5.814;2023-05-14T13:51:22;16.23;;;7.10;;
60243;SDS011;46106;51.468;5.814;2023-05-14T13:53:48;23.20;;;8.20;;
60243;SDS011;46106;51.468;5.814;2023-05-14T13:56:13;13.95;;;6.80;;
60243;SDS011;46106;51.468;5.814;2023-05-14T13:58:39;12.63;;;6.90;;
60243;SDS011;46106;51.468;5.814;2023-05-14T14:01:04;16.92;;;6.90;;
60243;SDS011;46106;51.468;5.814;2023-05-14T14:03:30;12.50;;;6.53;;
60243;SDS011;46106;51.468;5.814;2023-05-14T14:05:55;13.43;;;6.32;;
60243;SDS011;46106;51.468;5.814;2023-05-14T14:08:21;13.80;;;6.97;;
60243;SDS011;46106;51.468;5.814;2023-05-14T14:10:46;12.27;;;6.78;;
60243;SDS011;46106;51.468;5.814;2023-05-14T14:13:11;17.08;;;7.40;;
60243;SDS011;46106;51.468;5.814;2023-05-14T14:15:37;25.70;;;7.60;;
60243;SDS011;46106;51.468;5.814;2023-05-14T14:18:03;14.13;;;7.25;;
60243;SDS011;46106;51.468;5.814;2023-05-14T14:20:28;13.35;;;7.30;;
60243;SDS011;46106;51.468;5.814;2023-05-14T14:22:55;28.55;;;8.05;;
60243;SDS011;46106;51.468;5.814;2023-05-14T14:25:20;21.00;;;11.38;;
60243;SDS011;46106;51.468;5.814;2023-05-14T14:27:46;16.05;;;8.68;;
60243;SDS011;46106;51.468;5.814;2023-05-14T14:30:11;16.92;;;7.47;;
60243;SDS011;46106;51.468;5.814;2023-05-14T14:32:41;20.00;;;8.35;;